Latest Weather Observations for Troughton Island

IDW60801

Issued at 5:23 pm WST Tuesday 22 October 2019 (issued every 10 minutes, with the page automatically refreshed every 10 minutes)

About weather observations | Map of weather stations | Latest weather observations for WA | Other Formats
Station Details ID: 001007 Name: TROUGHTON ISLAND Lat: -13.75 Lon: 126.15 Height: 6.0 m
Data from the previous 72 hours. | See also: Recent months at Troughton Island
Date/Time
WST
Temp
°C
App
Temp
°C
Dew
Point
°C
Rel
Hum
%
Delta-T
°C
Wind Press
QNH
hPa
Press
MSL
hPa
Rain since
9am
mm
Dir  Spd
km/h
Gust
km/h
Spd
kts
Gust
kts
22/05:00pm 29.9 31.4 21.3 60 5.8 NNW 15 19 8 10 1009.3 1009.2 0.0
22/04:30pm 30.8 31.8 21.0 56 6.5 N 17 20 9 11 1009.1 1009.0 0.0
22/04:00pm 31.2 32.2 21.7 57 6.4 N 19 22 10 12 1008.7 1008.6 0.0
22/03:30pm 32.1 32.2 20.4 50 7.8 NNW 20 26 11 14 1008.6 1008.5 0.0
22/03:00pm 32.1 30.3 17.9 42 9.1 N 24 30 13 16 1008.6 1008.5 0.0
22/02:30pm 32.4 31.0 19.6 46 8.4 N 26 32 14 17 1008.6 1008.5 0.0
22/02:00pm 32.3 31.4 19.9 48 8.2 N 24 32 13 17 1008.6 1008.5 0.0
22/01:30pm 32.8 31.5 18.2 42 9.4 N 22 28 12 15 1008.9 1008.8 0.0
22/01:00pm 32.4 31.9 18.6 44 9.0 N 19 22 10 12 1009.5 1009.4 0.0
22/12:30pm 32.2 31.9 17.3 41 9.5 N 15 20 8 11 1010.0 1009.9 0.0
22/12:00pm 32.9 34.2 20.1 47 8.5 N 13 20 7 11 1010.4 1010.3 0.0
22/11:30am 33.9 34.0 15.4 33 11.5 SE 9 19 5 10 1011.1 1011.0 0.0
22/11:00am 33.6 33.4 13.6 29 12.1 ESE 7 11 4 6 1011.7 1011.6 0.0
22/10:30am 32.6 33.4 16.4 37 10.2 SE 7 11 4 6 1012.2 1012.1 0.0
22/10:00am 32.9 32.5 13.0 30 11.9 SSW 7 11 4 6 1012.5 1012.4 0.0
22/09:30am 33.0 33.9 18.4 42 9.5 SE 11 15 6 8 1012.8 1012.7 0.0
22/09:00am 32.0 33.7 19.3 47 8.3 S 9 13 5 7 1013.1 1013.0 0.0
22/08:30am 31.6 31.7 16.4 40 9.5 S 11 13 6 7 1013.0 1012.9 0.0
22/08:00am 31.7 32.1 16.4 39 9.6 SE 9 11 5 6 1013.0 1012.9 0.0
22/07:30am 31.0 32.7 19.4 50 7.6 SE 9 11 5 6 1012.7 1012.6 0.0
22/07:00am 30.4 34.0 23.1 65 5.0 SSE 9 11 5 6 1012.4 1012.3 0.0
22/06:30am 29.4 33.8 23.8 72 3.9 SSE 7 9 4 5 1012.0 1011.9 0.0
22/06:00am 28.2 33.3 25.0 83 2.2 SSE 7 9 4 5 1011.7 1011.6 0.0
22/05:30am 26.9 32.1 25.1 90 1.3 SSE 7 9 4 5 1011.3 1011.2 0.0
22/05:00am 26.7 31.6 24.7 89 1.4 SSE 7 9 4 5 1011.1 1011.0 0.0
22/04:30am 27.4 32.5 25.6 90 1.3 SSE 9 9 5 5 1010.7 1010.6 0.0
22/04:00am 27.5 32.6 25.5 89 1.4 S 9 11 5 6 1010.3 1010.2 0.0
22/03:30am 27.4 32.0 25.4 89 1.4 S 11 13 6 7 1010.1 1010.0 0.0
22/03:00am 27.4 32.4 26.0 92 1.0 S 11 13 6 7 1009.9 1009.8 0.0
22/02:30am 27.7 33.0 26.5 93 0.9 S 11 15 6 8 1009.9 1009.8 0.0
22/02:00am 27.7 32.9 26.3 92 1.0 SSW 11 15 6 8 1010.2 1010.1 0.0
22/01:30am 27.8 33.3 26.2 91 1.1 S 9 11 5 6 1010.2 1010.1 0.0
22/01:00am 27.9 33.4 26.1 90 1.3 S 9 11 5 6 1010.5 1010.4 0.0
22/12:30am 28.1 32.7 25.9 88 1.6 S 13 15 7 8 1010.7 1010.6 0.0
22/12:00am 28.1 32.3 25.3 85 2.0 SSW 13 17 7 9 1010.7 1010.6 0.0
 
Date/Time
WST
Temp
°C
App
Temp
°C
Dew
Point
°C
Rel
Hum
%
Delta-T
°C
Wind Press
QNH
hPa
Press
MSL
hPa
Rain since
9am
mm
Dir  Spd
km/h
Gust
km/h
Spd
kts
Gust
kts
21/11:30pm 28.2 32.4 25.4 85 2.0 SSW 13 15 7 8 1011.0 1010.9 0.0
21/11:00pm 28.3 32.6 25.5 85 2.0 SSW 13 17 7 9 1011.3 1011.2 0.0
21/10:30pm 28.3 32.0 25.1 83 2.2 SSW 15 17 8 9 1011.6 1011.5 0.0
21/10:00pm 28.3 32.5 24.7 81 2.5 SSW 11 13 6 7 1011.8 1011.7 0.0
21/09:30pm 28.3 32.6 24.9 82 2.4 SSW 11 13 6 7 1012.1 1012.0 0.0
21/09:00pm 28.2 31.9 24.6 81 2.5 SSW 13 15 7 8 1012.0 1011.9 0.0
21/08:30pm 28.3 31.7 24.7 81 2.5 SW 15 15 8 8 1011.9 1011.8 0.0
21/08:00pm 28.2 32.7 25.2 84 2.1 SSW 11 15 6 8 1011.9 1011.8 0.0
21/07:30pm 28.3 33.0 24.9 82 2.4 S 9 11 5 6 1011.6 1011.5 0.0
21/07:00pm 28.6 33.1 24.6 79 2.8 S 9 11 5 6 1011.5 1011.4 0.0
21/06:30pm 28.9 32.7 24.0 75 3.4 SSW 11 15 6 8 1011.4 1011.3 0.0
21/06:00pm 29.1 32.0 23.1 70 4.1 WNW 13 15 7 8 1011.1 1011.0 0.0
21/05:30pm 29.4 32.8 24.0 72 3.7 W 13 17 7 9 1010.8 1010.7 0.0
21/05:00pm 30.2 33.2 23.4 67 4.7 WSW 13 17 7 9 1010.4 1010.3 0.0
21/04:30pm 30.7 33.7 23.4 65 5.0 WNW 13 15 7 8 1010.1 1010.0 0.0
21/04:00pm 31.6 34.4 23.7 63 5.5 WNW 15 19 8 10 1010.2 1010.1 0.0
21/03:30pm 31.4 34.3 23.8 64 5.3 WNW 15 19 8 10 1010.4 1010.3 0.0
21/03:00pm 31.2 34.3 24.1 66 4.9 WNW 15 17 8 9 1010.7 1010.6 0.0
21/02:30pm 31.8 35.6 24.7 66 5.0 W 13 17 7 9 1011.0 1010.9 0.0
21/02:00pm 31.9 35.4 24.2 63 5.4 WSW 13 15 7 8 1011.2 1011.1 0.0
21/01:30pm 31.5 35.2 23.9 64 5.3 SW 11 13 6 7 1011.5 1011.4 0.0
21/01:00pm 31.5 35.0 23.6 63 5.5 WNW 11 15 6 8 1011.9 1011.8 0.0
21/12:30pm 31.5 34.9 24.1 65 5.2 WNW 13 17 7 9 1012.1 1012.0 0.0
21/12:00pm 32.4 34.6 21.9 54 7.1 NW 13 17 7 9 1012.4 1012.3 0.0
21/11:30am 33.3 35.0 19.4 44 9.2 WNW 9 15 5 8 1013.0 1012.9 0.0
21/11:00am 32.5 34.2 20.1 48 8.2 WNW 11 20 6 11 1013.3 1013.2 0.0
21/10:30am 32.2 34.0 19.5 47 8.3 W 9 11 5 6 1013.7 1013.6 0.0
21/10:00am 32.6 32.9 15.1 34 10.8 SW 7 13 4 7 1013.9 1013.8 0.0
21/09:30am 32.1 34.8 20.7 51 7.6 WSW 7 9 4 5 1014.0 1013.9 0.0
21/09:00am 30.6 34.0 21.7 59 6.0 SSE 6 9 3 5 1014.1 1014.0 0.0
21/08:30am 30.3 34.8 23.7 68 4.6 SSE 6 9 3 5 1014.2 1014.1 0.0
21/08:00am 30.1 34.4 24.3 71 4.0 SSE 9 11 5 6 1014.2 1014.1 0.0
21/07:30am 29.7 34.0 23.6 69 4.2 SSE 7 9 4 5 1014.0 1013.9 0.0
21/07:00am 29.3 33.4 24.0 73 3.7 SSE 9 9 5 5 1013.7 1013.6 0.0
21/06:30am 29.0 34.1 25.0 79 2.8 SSE 7 9 4 5 1013.3 1013.2 0.0
21/06:00am 28.1 33.4 25.3 85 2.0 SSE 7 9 4 5 1013.2 1013.1 0.0
21/05:30am 27.6 32.2 25.4 88 1.5 SSW 11 13 6 7 1012.8 1012.7 0.0
21/05:00am 27.6 31.6 25.0 86 1.8 SW 13 15 7 8 1012.4 1012.3 0.0
21/04:30am 27.6 31.8 24.8 85 2.0 WSW 11 13 6 7 1011.9 1011.8 0.0
21/04:00am 27.7 31.6 24.9 85 2.0 WSW 13 17 7 9 1011.7 1011.6 0.0
21/03:30am 27.9 31.6 25.1 85 2.0 WSW 15 19 8 10 1011.5 1011.4 0.0
21/03:00am 27.9 31.3 24.7 83 2.2 WSW 15 17 8 9 1011.4 1011.3 0.0
21/02:30am 27.9 31.7 24.7 83 2.2 W 13 15 7 8 1011.3 1011.2 0.0
21/02:00am 27.9 31.4 24.9 84 2.1 W 15 17 8 9 1011.3 1011.2 0.0
21/01:30am 27.8 31.3 24.8 84 2.1 W 15 17 8 9 1011.4 1011.3 0.0
21/01:00am 27.8 31.5 25.2 86 1.8 W 15 17 8 9 1011.5 1011.4 0.0
21/12:30am 27.8 32.0 25.4 87 1.7 W 13 15 7 8 1011.6 1011.5 0.0
21/12:00am 27.8 31.5 25.2 86 1.8 W 15 17 8 9 1011.8 1011.7 0.0
 
Date/Time
WST
Temp
°C
App
Temp
°C
Dew
Point
°C
Rel
Hum
%
Delta-T
°C
Wind Press
QNH
hPa
Press
MSL
hPa
Rain since
9am
mm
Dir  Spd
km/h
Gust
km/h
Spd
kts
Gust
kts
20/11:30pm 27.9 31.8 25.5 87 1.7 W 15 17 8 9 1012.1 1012.0 0.0
20/11:00pm 27.9 32.1 25.3 86 1.8 WNW 13 15 7 8 1012.6 1012.5 0.0
20/10:30pm 28.0 32.2 25.4 86 1.8 WNW 13 15 7 8 1012.7 1012.6 0.0
20/10:00pm 27.8 31.8 25.0 85 2.0 WNW 13 15 7 8 1012.8 1012.7 0.0
20/09:30pm 27.9 31.7 24.7 83 2.2 WNW 13 15 7 8 1012.9 1012.8 0.0
20/09:00pm 27.7 31.1 24.1 81 2.5 NW 13 15 7 8 1012.7 1012.6 0.0
20/08:30pm 27.8 31.0 24.4 82 2.4 NW 15 15 8 8 1012.7 1012.6 0.0
20/08:00pm 27.9 31.2 24.5 82 2.4 NW 15 17 8 9 1012.5 1012.4 0.0
20/07:30pm 28.0 31.7 24.6 82 2.4 NW 13 15 7 8 1012.4 1012.3 0.0
20/07:00pm 28.2 31.9 24.6 81 2.5 NW 13 15 7 8 1012.1 1012.0 0.0
20/06:30pm 28.4 31.1 23.5 75 3.4 NW 15 17 8 9 1011.8 1011.7 0.0
20/06:00pm 28.7 31.6 23.8 75 3.4 W 15 17 8 9 1011.4 1011.3 0.0
20/05:30pm 29.1 31.7 24.0 74 3.5 W 17 19 9 10 1011.0 1010.9 0.0
20/05:00pm 30.0 32.2 23.2 67 4.7 NW 17 19 9 10 1010.7 1010.6 0.0
20/04:30pm 30.7 32.8 23.1 64 5.2 WNW 17 20 9 11 1010.6 1010.5 0.0
20/04:00pm 31.3 33.3 22.9 61 5.8 W 17 20 9 11 1010.6 1010.5 0.0
20/03:30pm 31.6 33.4 22.6 59 6.2 W 17 20 9 11 1010.8 1010.7 0.0
20/03:00pm 31.9 34.1 23.2 60 6.0 W 17 19 9 10 1010.9 1010.8 0.0
20/02:30pm 31.4 33.8 23.0 61 5.8 W 15 17 8 9 1011.1 1011.0 0.0
20/02:00pm 31.6 34.6 23.4 61 5.7 W 13 15 7 8 1011.5 1011.4 0.0
20/01:30pm 31.9 34.3 22.3 56 6.5 WSW 13 17 7 9 1011.5 1011.4 0.0
20/01:00pm 32.8 34.3 21.3 50 7.8 WSW 15 17 8 9 1011.7 1011.6 0.0
20/12:30pm 32.2 34.9 22.9 58 6.4 WSW 13 17 7 9 1011.9 1011.8 0.0
20/12:00pm 32.6 35.0 23.0 57 6.6 SW 15 17 8 9 1012.2 1012.1 0.0
20/11:30am 32.2 34.6 22.9 58 6.4 SW 15 17 8 9 1012.5 1012.4 0.0
20/11:00am 31.8 33.9 22.5 58 6.4 SW 15 17 8 9 1013.0 1012.9 0.0
20/10:30am 31.9 33.4 22.0 55 6.7 WSW 17 22 9 12 1013.2 1013.1 0.0
20/10:00am 31.8 34.0 23.3 60 5.9 WSW 17 19 9 10 1013.9 1013.8 0.0
20/09:30am 31.4 33.7 23.5 63 5.5 SW 17 19 9 10 1014.1 1014.0 0.0
20/09:00am 31.1 34.5 24.0 66 4.9 SSW 13 17 7 9 1014.6 1014.5 0.0
20/08:30am 30.9 34.2 24.5 68 4.5 SSW 15 19 8 10 1014.9 1014.8 0.0
20/08:00am 30.6 34.2 24.3 69 4.4 SSW 13 17 7 9 1015.2 1015.1 0.0
20/07:30am 30.0 33.5 24.2 71 4.0 SW 13 15 7 8 1015.2 1015.1 0.0
20/07:00am 29.7 33.6 24.8 75 3.4 SSW 13 17 7 9 1014.8 1014.7 0.0
20/06:30am 28.3 32.1 24.1 78 2.9 WSW 11 13 6 7 1014.6 1014.5 0.0
20/06:00am 27.8 32.2 24.4 82 2.4 WNW 9 11 5 6 1014.4 1014.3 0.0
20/05:30am 27.5 31.9 24.4 83 2.1 S 9 9 5 5 1014.2 1014.1 0.0
20/05:00am 27.4 31.7 24.3 83 2.1 SSW 9 11 5 6 1013.6 1013.5 0.0
20/04:30am 27.5 30.7 23.7 80 2.6 WSW 13 15 7 8 1013.1 1013.0 0.0
20/04:00am 27.6 31.1 24.2 82 2.4 SW 13 17 7 9 1012.9 1012.8 0.0
20/03:30am 27.6 30.6 24.0 81 2.5 SW 15 19 8 10 1012.4 1012.3 0.0
20/03:00am 27.7 29.9 23.9 80 2.6 SW 19 20 10 11 1012.2 1012.1 0.0
20/02:30am 27.6 30.0 24.2 82 2.4 SW 19 20 10 11 1011.9 1011.8 0.0
20/02:00am 27.6 30.5 24.4 83 2.2 SW 17 20 9 11 1012.0 1011.9 0.0
20/01:30am 27.6 30.0 24.2 82 2.4 WSW 19 20 10 11 1012.0 1011.9 0.0
20/01:00am 27.6 30.0 24.2 82 2.4 WSW 19 22 10 12 1012.3 1012.2 0.0
20/12:30am 27.6 30.0 24.6 84 2.1 WSW 20 24 11 13 1012.8 1012.7 0.0
20/12:00am 27.4 29.9 24.5 84 2.0 SW 19 22 10 12 1013.2 1013.1 0.0
 
Date/Time
WST
Temp
°C
App
Temp
°C
Dew
Point
°C
Rel
Hum
%
Delta-T
°C
Wind Press
QNH
hPa
Press
MSL
hPa
Rain since
9am
mm
Dir  Spd
km/h
Gust
km/h
Spd
kts
Gust
kts
19/11:30pm 27.5 30.3 24.9 86 1.8 SW 19 20 10 11 1013.3 1013.2 0.0
19/11:00pm 27.4 30.3 24.5 84 2.0 WSW 17 20 9 11 1013.5 1013.4 0.0
19/10:30pm 27.3 30.1 24.9 87 1.7 WSW 19 22 10 12 1013.7 1013.6 0.0
19/10:00pm 27.3 30.5 24.9 87 1.7 WSW 17 20 9 11 1014.0 1013.9 0.0
19/09:30pm 27.2 31.2 25.0 88 1.5 SW 13 17 7 9 1014.0 1013.9 0.0
19/09:00pm 27.1 31.3 24.7 87 1.7 SSW 11 13 6 7 1013.9 1013.8 0.0
19/08:30pm 27.1 31.2 24.6 86 1.7 S 11 13 6 7 1014.1 1014.0 0.0
19/08:00pm 27.4 31.6 24.7 85 1.9 SE 11 15 6 8 1014.0 1013.9 0.0
19/07:30pm 27.8 31.9 24.6 83 2.2 E 11 15 6 8 1013.6 1013.5 0.0
19/07:00pm 27.9 32.3 24.5 82 2.4 E 9 13 5 7 1013.3 1013.2 0.0
19/06:30pm 28.1 31.5 24.1 79 2.8 NE 13 15 7 8 1012.9 1012.8 0.0
19/06:00pm 28.0 31.1 23.6 77 3.0 NNE 13 15 7 8 1012.7 1012.6 0.0
19/05:30pm 28.5 31.0 23.2 73 3.6 N 15 19 8 10 1012.4 1012.3 0.0

Other formats

Comma delimited format used in spreadsheet applications
http://www.bom.gov.au/fwo/IDW60801/IDW60801.94102.axf

JavaScript Object Notation format (JSON) in row-major order
http://www.bom.gov.au/fwo/IDW60801/IDW60801.94102.json

Data quality

Most of these data are generated automatically and are frequently updated. Quality checks on data are not normally performed. It is possible for incorrect values to appear. Refer to information at About Latest Weather Observations and please check the disclaimer before using these data.